sensor_id;sensor_type;location;lat;lon;timestamp;pressure;altitude;pressure_sealevel;temperature;humidity
50430;BME280;36359;41.556;-8.418;2023-05-03T00:02:12;99523.72;;;22.15;59.95
50430;BME280;36359;41.556;-8.418;2023-05-03T00:04:38;99521.84;;;22.04;60.30
50430;BME280;36359;41.556;-8.418;2023-05-03T00:07:24;99519.75;;;22.11;60.86
50430;BME280;36359;41.556;-8.418;2023-05-03T00:09:49;99508.81;;;22.16;59.67
50430;BME280;36359;41.556;-8.418;2023-05-03T00:12:15;99506.69;;;22.18;58.81
50430;BME280;36359;41.556;-8.418;2023-05-03T00:14:41;99508.47;;;22.24;58.84
50430;BME280;36359;41.556;-8.418;2023-05-03T00:17:10;99499.56;;;22.22;59.14
50430;BME280;36359;41.556;-8.418;2023-05-03T00:19:35;99502.06;;;22.23;58.39
50430;BME280;36359;41.556;-8.418;2023-05-03T00:22:01;99502.78;;;22.31;61.36
50430;BME280;36359;41.556;-8.418;2023-05-03T00:28:05;99499.69;;;22.27;60.83
50430;BME280;36359;41.556;-8.418;2023-05-03T00:30:31;99483.72;;;22.17;60.72
50430;BME280;36359;41.556;-8.418;2023-05-03T00:32:56;99483.50;;;22.19;60.35
50430;BME280;36359;41.556;-8.418;2023-05-03T00:35:22;99485.38;;;22.30;61.57
50430;BME280;36359;41.556;-8.418;2023-05-03T00:37:48;99492.72;;;22.25;61.63
50430;BME280;36359;41.556;-8.418;2023-05-03T00:40:14;99492.97;;;22.11;59.01
50430;BME280;36359;41.556;-8.418;2023-05-03T00:42:43;99483.41;;;22.02;60.32
50430;BME280;36359;41.556;-8.418;2023-05-03T00:45:10;99494.38;;;21.85;60.16
50430;BME280;36359;41.556;-8.418;2023-05-03T00:47:37;99484.69;;;21.83;60.19
50430;BME280;36359;41.556;-8.418;2023-05-03T00:50:03;99484.28;;;21.91;60.86
50430;BME280;36359;41.556;-8.418;2023-05-03T00:52:29;99486.69;;;21.87;60.28
50430;BME280;36359;41.556;-8.418;2023-05-03T00:54:59;99484.66;;;21.94;61.04
50430;BME280;36359;41.556;-8.418;2023-05-03T00:59:57;99476.63;;;21.81;61.57
50430;BME280;36359;41.556;-8.418;2023-05-03T01:02:23;99467.72;;;21.79;61.64
50430;BME280;36359;41.556;-8.418;2023-05-03T01:04:51;99466.09;;;21.66;62.04
50430;BME280;36359;41.556;-8.418;2023-05-03T01:07:33;99460.34;;;21.68;62.75
50430;BME280;36359;41.556;-8.418;2023-05-03T01:15:44;99463.28;;;21.90;62.41
50430;BME280;36359;41.556;-8.418;2023-05-03T01:18:20;99455.50;;;21.75;64.20
50430;BME280;36359;41.556;-8.418;2023-05-03T01:20:48;99442.25;;;21.48;65.16
50430;BME280;36359;41.556;-8.418;2023-05-03T01:25:46;99454.03;;;21.84;64.92
50430;BME280;36359;41.556;-8.418;2023-05-03T01:28:15;99460.19;;;21.74;64.88
50430;BME280;36359;41.556;-8.418;2023-05-03T01:30:41;99464.75;;;21.81;62.35
50430;BME280;36359;41.556;-8.418;2023-05-03T01:33:30;99466.06;;;21.78;64.44
50430;BME280;36359;41.556;-8.418;2023-05-03T01:36:16;99464.72;;;21.92;66.26
50430;BME280;36359;41.556;-8.418;2023-05-03T01:38:43;99463.94;;;21.97;66.26
50430;BME280;36359;41.556;-8.418;2023-05-03T01:41:11;99473.13;;;21.86;67.16
50430;BME280;36359;41.556;-8.418;2023-05-03T01:43:39;99470.97;;;21.76;67.81
50430;BME280;36359;41.556;-8.418;2023-05-03T01:46:05;99459.75;;;21.66;68.31
50430;BME280;36359;41.556;-8.418;2023-05-03T01:48:31;99451.47;;;21.54;69.43
50430;BME280;36359;41.556;-8.418;2023-05-03T01:50:57;99442.84;;;21.50;68.64
50430;BME280;36359;41.556;-8.418;2023-05-03T01:53:23;99430.59;;;21.46;69.13
50430;BME280;36359;41.556;-8.418;2023-05-03T01:55:49;99433.84;;;21.43;69.39
50430;BME280;36359;41.556;-8.418;2023-05-03T01:58:14;99443.06;;;21.61;67.53
50430;BME280;36359;41.556;-8.418;2023-05-03T02:00:40;99440.06;;;21.62;66.91
50430;BME280;36359;41.556;-8.418;2023-05-03T02:03:06;99453.28;;;21.60;66.87
50430;BME280;36359;41.556;-8.418;2023-05-03T02:05:32;99453.41;;;21.53;67.96
50430;BME280;36359;41.556;-8.418;2023-05-03T02:07:59;99452.00;;;21.39;68.10
50430;BME280;36359;41.556;-8.418;2023-05-03T02:10:25;99453.50;;;21.47;68.06
50430;BME280;36359;41.556;-8.418;2023-05-03T02:12:54;99451.63;;;21.47;67.68
50430;BME280;36359;41.556;-8.418;2023-05-03T02:15:20;99447.50;;;21.50;67.54
50430;BME280;36359;41.556;-8.418;2023-05-03T02:17:46;99448.59;;;21.49;67.20
50430;BME280;36359;41.556;-8.418;2023-05-03T02:20:13;99442.75;;;21.45;67.18
50430;BME280;36359;41.556;-8.418;2023-05-03T02:22:39;99437.09;;;21.40;67.15
50430;BME280;36359;41.556;-8.418;2023-05-03T02:25:05;99423.06;;;21.30;66.91
50430;BME280;36359;41.556;-8.418;2023-05-03T02:27:31;99415.63;;;21.30;67.82
50430;BME280;36359;41.556;-8.418;2023-05-03T02:29:57;99408.78;;;21.33;66.43
50430;BME280;36359;41.556;-8.418;2023-05-03T02:32:24;99413.00;;;21.12;64.48
50430;BME280;36359;41.556;-8.418;2023-05-03T02:34:50;99404.97;;;21.10;62.72
50430;BME280;36359;41.556;-8.418;2023-05-03T02:37:19;99396.31;;;21.19;64.62
50430;BME280;36359;41.556;-8.418;2023-05-03T02:39:46;99393.19;;;21.27;64.93
50430;BME280;36359;41.556;-8.418;2023-05-03T02:42:13;99391.63;;;21.31;64.68
50430;BME280;36359;41.556;-8.418;2023-05-03T02:44:39;99399.66;;;21.32;64.33
50430;BME280;36359;41.556;-8.418;2023-05-03T02:47:07;99401.50;;;21.39;64.23
50430;BME280;36359;41.556;-8.418;2023-05-03T02:49:34;99433.69;;;21.62;67.44
50430;BME280;36359;41.556;-8.418;2023-05-03T02:52:00;99467.72;;;21.79;66.89
50430;BME280;36359;41.556;-8.418;2023-05-03T02:54:25;99488.19;;;21.54;66.45
50430;BME280;36359;41.556;-8.418;2023-05-03T02:56:52;99478.97;;;21.49;67.17
50430;BME280;36359;41.556;-8.418;2023-05-03T02:59:17;99478.34;;;21.35;69.01
50430;BME280;36359;41.556;-8.418;2023-05-03T03:01:45;99475.13;;;21.38;67.96
50430;BME280;36359;41.556;-8.418;2023-05-03T03:04:11;99464.78;;;21.33;68.10
50430;BME280;36359;41.556;-8.418;2023-05-03T03:06:37;99464.19;;;21.31;69.20
50430;BME280;36359;41.556;-8.418;2023-05-03T03:09:03;99454.13;;;21.37;69.11
50430;BME280;36359;41.556;-8.418;2023-05-03T03:11:29;99467.72;;;21.39;68.64
50430;BME280;36359;41.556;-8.418;2023-05-03T03:13:54;99483.28;;;21.45;68.84
50430;BME280;36359;41.556;-8.418;2023-05-03T03:16:23;99493.72;;;21.54;68.35
50430;BME280;36359;41.556;-8.418;2023-05-03T03:18:49;99500.81;;;21.62;67.17
50430;BME280;36359;41.556;-8.418;2023-05-03T03:21:15;99503.78;;;21.61;67.44
50430;BME280;36359;41.556;-8.418;2023-05-03T03:23:41;99507.28;;;21.68;64.39
50430;BME280;36359;41.556;-8.418;2023-05-03T03:26:07;99495.75;;;21.59;64.11
50430;BME280;36359;41.556;-8.418;2023-05-03T03:28:33;99494.06;;;21.46;64.88
50430;BME280;36359;41.556;-8.418;2023-05-03T03:31:02;99491.19;;;21.53;65.06
50430;BME280;36359;41.556;-8.418;2023-05-03T03:33:29;99495.38;;;21.55;67.31
50430;BME280;36359;41.556;-8.418;2023-05-03T03:36:02;99495.38;;;21.55;65.46
50430;BME280;36359;41.556;-8.418;2023-05-03T03:38:34;99479.56;;;21.51;64.54
50430;BME280;36359;41.556;-8.418;2023-05-03T03:41:04;99481.03;;;21.42;65.15
50430;BME280;36359;41.556;-8.418;2023-05-03T03:43:30;99472.34;;;21.26;66.05
50430;BME280;36359;41.556;-8.418;2023-05-03T03:45:57;99469.34;;;21.16;66.45
50430;BME280;36359;41.556;-8.418;2023-05-03T03:48:23;99472.25;;;21.09;66.73
50430;BME280;36359;41.556;-8.418;2023-05-03T03:50:49;99476.44;;;21.00;67.13
50430;BME280;36359;41.556;-8.418;2023-05-03T03:53:16;99476.31;;;21.07;68.79
50430;BME280;36359;41.556;-8.418;2023-05-03T03:55:42;99480.16;;;20.94;67.81
50430;BME280;36359;41.556;-8.418;2023-05-03T03:58:08;99478.56;;;20.75;67.68
50430;BME280;36359;41.556;-8.418;2023-05-03T04:00:35;99479.53;;;20.80;69.23
50430;BME280;36359;41.556;-8.418;2023-05-03T04:03:07;99472.09;;;20.81;69.67
50430;BME280;36359;41.556;-8.418;2023-05-03T04:05:33;99454.38;;;20.77;70.32
50430;BME280;36359;41.556;-8.418;2023-05-03T04:08:00;99447.16;;;20.76;71.59
50430;BME280;36359;41.556;-8.418;2023-05-03T04:10:28;99435.13;;;20.58;72.74
50430;BME280;36359;41.556;-8.418;2023-05-03T04:12:54;99434.31;;;20.28;74.24
50430;BME280;36359;41.556;-8.418;2023-05-03T04:15:20;99433.81;;;20.19;74.65
50430;BME280;36359;41.556;-8.418;2023-05-03T04:17:46;99431.25;;;20.06;75.17
50430;BME280;36359;41.556;-8.418;2023-05-03T04:20:14;99426.25;;;20.14;74.11
50430;BME280;36359;41.556;-8.418;2023-05-03T04:22:44;99412.84;;;20.06;74.83
50430;BME280;36359;41.556;-8.418;2023-05-03T04:25:12;99414.81;;;19.99;75.98
50430;BME280;36359;41.556;-8.418;2023-05-03T04:27:39;99408.44;;;19.87;77.33
50430;BME280;36359;41.556;-8.418;2023-05-03T04:30:06;99404.75;;;19.93;76.69
50430;BME280;36359;41.556;-8.418;2023-05-03T04:32:32;99401.78;;;19.94;75.92
50430;BME280;36359;41.556;-8.418;2023-05-03T04:35:06;99399.59;;;19.96;75.44
50430;BME280;36359;41.556;-8.418;2023-05-03T04:37:37;99396.16;;;20.01;74.14
50430;BME280;36359;41.556;-8.418;2023-05-03T04:40:05;99392.00;;;20.10;73.04
50430;BME280;36359;41.556;-8.418;2023-05-03T04:42:42;99403.34;;;20.02;72.12
50430;BME280;36359;41.556;-8.418;2023-05-03T04:45:09;99411.81;;;20.31;71.75
50430;BME280;36359;41.556;-8.418;2023-05-03T04:47:35;99442.19;;;20.12;71.08
50430;BME280;36359;41.556;-8.418;2023-05-03T04:50:01;99450.63;;;20.41;71.64
50430;BME280;36359;41.556;-8.418;2023-05-03T04:52:28;99449.66;;;20.54;69.93
50430;BME280;36359;41.556;-8.418;2023-05-03T04:54:54;99451.56;;;20.53;69.28
50430;BME280;36359;41.556;-8.418;2023-05-03T04:57:21;99444.38;;;20.64;69.94
50430;BME280;36359;41.556;-8.418;2023-05-03T04:59:47;99449.53;;;20.60;70.19
50430;BME280;36359;41.556;-8.418;2023-05-03T05:02:13;99442.66;;;20.51;70.03
50430;BME280;36359;41.556;-8.418;2023-05-03T05:07:04;99443.06;;;20.67;69.55
50430;BME280;36359;41.556;-8.418;2023-05-03T05:09:31;99450.88;;;20.81;69.60
50430;BME280;36359;41.556;-8.418;2023-05-03T05:12:00;99446.31;;;20.75;69.11
50430;BME280;36359;41.556;-8.418;2023-05-03T05:14:32;99452.78;;;20.81;71.61
50430;BME280;36359;41.556;-8.418;2023-05-03T05:16:59;99455.06;;;20.84;70.99
50430;BME280;36359;41.556;-8.418;2023-05-03T05:19:25;99447.41;;;20.74;70.93
50430;BME280;36359;41.556;-8.418;2023-05-03T05:21:51;99441.97;;;20.56;71.46
50430;BME280;36359;41.556;-8.418;2023-05-03T05:24:19;99442.00;;;20.37;71.89
50430;BME280;36359;41.556;-8.418;2023-05-03T05:26:45;99442.94;;;20.31;71.15
50430;BME280;36359;41.556;-8.418;2023-05-03T05:29:13;99450.47;;;20.54;73.28
50430;BME280;36359;41.556;-8.418;2023-05-03T05:31:39;99461.28;;;20.68;71.21
50430;BME280;36359;41.556;-8.418;2023-05-03T05:34:06;99475.69;;;20.39;71.91
50430;BME280;36359;41.556;-8.418;2023-05-03T05:36:34;99463.81;;;20.39;72.18
50430;BME280;36359;41.556;-8.418;2023-05-03T05:38:59;99463.47;;;20.35;72.08
50430;BME280;36359;41.556;-8.418;2023-05-03T05:41:25;99474.13;;;20.43;73.07
50430;BME280;36359;41.556;-8.418;2023-05-03T05:43:51;99489.28;;;20.53;73.21
50430;BME280;36359;41.556;-8.418;2023-05-03T05:46:18;99499.59;;;20.57;72.79
50430;BME280;36359;41.556;-8.418;2023-05-03T05:48:46;99503.84;;;20.72;73.07
50430;BME280;36359;41.556;-8.418;2023-05-03T05:51:12;99496.78;;;20.76;72.52
50430;BME280;36359;41.556;-8.418;2023-05-03T05:53:38;99504.19;;;20.63;71.87
50430;BME280;36359;41.556;-8.418;2023-05-03T05:56:06;99500.59;;;20.63;72.56
50430;BME280;36359;41.556;-8.418;2023-05-03T05:58:33;99504.50;;;20.55;72.39
50430;BME280;36359;41.556;-8.418;2023-05-03T06:00:59;99502.44;;;20.51;73.09
50430;BME280;36359;41.556;-8.418;2023-05-03T06:03:33;99504.22;;;20.45;73.81
50430;BME280;36359;41.556;-8.418;2023-05-03T06:06:01;99500.94;;;20.36;73.98
50430;BME280;36359;41.556;-8.418;2023-05-03T06:08:27;99504.75;;;20.24;74.08
50430;BME280;36359;41.556;-8.418;2023-05-03T06:10:52;99493.72;;;20.24;74.07
50430;BME280;36359;41.556;-8.418;2023-05-03T06:13:19;99482.72;;;20.24;72.74
50430;BME280;36359;41.556;-8.418;2023-05-03T06:15:46;99492.69;;;20.36;72.33
50430;BME280;36359;41.556;-8.418;2023-05-03T06:18:12;99487.19;;;20.36;70.25
50430;BME280;36359;41.556;-8.418;2023-05-03T06:20:37;99496.13;;;20.32;70.33
50430;BME280;36359;41.556;-8.418;2023-05-03T06:23:04;99502.47;;;20.32;69.86
50430;BME280;36359;41.556;-8.418;2023-05-03T06:25:29;99501.59;;;20.20;70.35
50430;BME280;36359;41.556;-8.418;2023-05-03T06:27:55;99518.94;;;20.39;72.37
50430;BME280;36359;41.556;-8.418;2023-05-03T06:30:24;99530.00;;;20.51;65.77
50430;BME280;36359;41.556;-8.418;2023-05-03T06:32:52;99531.94;;;20.32;68.80
50430;BME280;36359;41.556;-8.418;2023-05-03T06:35:18;99539.28;;;20.38;68.72
50430;BME280;36359;41.556;-8.418;2023-05-03T06:37:46;99534.75;;;20.43;68.95
50430;BME280;36359;41.556;-8.418;2023-05-03T06:40:12;99537.13;;;20.70;69.32
50430;BME280;36359;41.556;-8.418;2023-05-03T06:42:39;99543.66;;;20.87;67.20
50430;BME280;36359;41.556;-8.418;2023-05-03T06:45:11;99541.69;;;21.18;66.99
50430;BME280;36359;41.556;-8.418;2023-05-03T06:47:37;99539.19;;;21.40;68.65
50430;BME280;36359;41.556;-8.418;2023-05-03T06:50:04;99535.13;;;21.54;67.70
50430;BME280;36359;41.556;-8.418;2023-05-03T06:52:30;99541.47;;;21.67;65.68
50430;BME280;36359;41.556;-8.418;2023-05-03T06:54:56;99550.69;;;21.72;64.24
50430;BME280;36359;41.556;-8.418;2023-05-03T06:57:22;99564.38;;;21.79;61.51
50430;BME280;36359;41.556;-8.418;2023-05-03T06:59:48;99557.66;;;21.75;61.55
50430;BME280;36359;41.556;-8.418;2023-05-03T07:02:13;99568.44;;;21.88;62.80
50430;BME280;36359;41.556;-8.418;2023-05-03T07:04:39;99573.88;;;21.83;60.15
50430;BME280;36359;41.556;-8.418;2023-05-03T07:07:05;99570.38;;;21.88;59.90
50430;BME280;36359;41.556;-8.418;2023-05-03T07:09:32;99562.91;;;21.88;63.88
50430;BME280;36359;41.556;-8.418;2023-05-03T07:12:01;99552.97;;;21.87;62.38
50430;BME280;36359;41.556;-8.418;2023-05-03T07:14:27;99563.28;;;21.92;62.59
50430;BME280;36359;41.556;-8.418;2023-05-03T07:17:11;99560.41;;;21.87;60.18
50430;BME280;36359;41.556;-8.418;2023-05-03T07:19:38;99547.94;;;21.84;61.89
50430;BME280;36359;41.556;-8.418;2023-05-03T07:22:06;99539.91;;;21.83;61.15
50430;BME280;36359;41.556;-8.418;2023-05-03T07:24:35;99545.88;;;21.91;63.90
50430;BME280;36359;41.556;-8.418;2023-05-03T07:27:02;99544.53;;;21.94;60.32
50430;BME280;36359;41.556;-8.418;2023-05-03T07:29:29;99539.13;;;21.99;64.22
50430;BME280;36359;41.556;-8.418;2023-05-03T07:31:55;99544.03;;;22.09;59.53
50430;BME280;36359;41.556;-8.418;2023-05-03T07:34:21;99536.22;;;22.06;57.55
50430;BME280;36359;41.556;-8.418;2023-05-03T07:36:46;99543.31;;;22.13;61.19
50430;BME280;36359;41.556;-8.418;2023-05-03T07:39:12;99542.81;;;22.28;55.82
50430;BME280;36359;41.556;-8.418;2023-05-03T07:41:38;99551.06;;;22.40;62.65
50430;BME280;36359;41.556;-8.418;2023-05-03T07:44:03;99564.47;;;22.48;56.81
50430;BME280;36359;41.556;-8.418;2023-05-03T07:46:29;99576.22;;;22.15;59.21
50430;BME280;36359;41.556;-8.418;2023-05-03T07:49:03;99583.44;;;21.22;65.20
50430;BME280;36359;41.556;-8.418;2023-05-03T07:51:29;99581.72;;;21.09;65.21
50430;BME280;36359;41.556;-8.418;2023-05-03T07:53:59;99581.22;;;21.54;62.23
50430;BME280;36359;41.556;-8.418;2023-05-03T07:56:26;99586.94;;;21.41;61.51
50430;BME280;36359;41.556;-8.418;2023-05-03T07:58:53;99585.50;;;21.62;64.85
50430;BME280;36359;41.556;-8.418;2023-05-03T08:01:19;99579.81;;;22.15;64.56
50430;BME280;36359;41.556;-8.418;2023-05-03T08:03:45;99588.09;;;22.56;63.30
50430;BME280;36359;41.556;-8.418;2023-05-03T08:06:11;99599.03;;;22.62;57.21
50430;BME280;36359;41.556;-8.418;2023-05-03T08:08:37;99587.59;;;22.42;56.85
50430;BME280;36359;41.556;-8.418;2023-05-03T08:11:03;99598.28;;;22.38;57.04
50430;BME280;36359;41.556;-8.418;2023-05-03T08:13:28;99589.41;;;22.65;62.82
50430;BME280;36359;41.556;-8.418;2023-05-03T08:15:54;99591.72;;;22.85;61.36
50430;BME280;36359;41.556;-8.418;2023-05-03T08:18:21;99588.59;;;23.10;55.03
50430;BME280;36359;41.556;-8.418;2023-05-03T08:20:53;99585.75;;;23.05;60.86
50430;BME280;36359;41.556;-8.418;2023-05-03T08:23:19;99591.97;;;23.12;59.67
50430;BME280;36359;41.556;-8.418;2023-05-03T08:25:47;99598.69;;;23.16;53.03
50430;BME280;36359;41.556;-8.418;2023-05-03T08:28:13;99589.88;;;22.90;52.21
50430;BME280;36359;41.556;-8.418;2023-05-03T08:30:39;99595.47;;;23.07;58.06
50430;BME280;36359;41.556;-8.418;2023-05-03T08:33:05;99597.66;;;23.22;51.54
50430;BME280;36359;41.556;-8.418;2023-05-03T08:35:34;99599.84;;;23.37;57.05
50430;BME280;36359;41.556;-8.418;2023-05-03T08:38:00;99595.38;;;23.53;52.67
50430;BME280;36359;41.556;-8.418;2023-05-03T08:40:27;99593.81;;;23.57;55.76
50430;BME280;36359;41.556;-8.418;2023-05-03T08:42:54;99596.16;;;23.65;58.39
50430;BME280;36359;41.556;-8.418;2023-05-03T08:45:23;99597.44;;;23.74;58.44
50430;BME280;36359;41.556;-8.418;2023-05-03T08:47:53;99597.34;;;23.86;50.82
50430;BME280;36359;41.556;-8.418;2023-05-03T08:50:19;99608.84;;;23.78;57.17
50430;BME280;36359;41.556;-8.418;2023-05-03T08:52:45;99613.25;;;23.96;53.05
50430;BME280;36359;41.556;-8.418;2023-05-03T08:55:11;99609.38;;;23.97;57.35
50430;BME280;36359;41.556;-8.418;2023-05-03T08:57:37;99611.72;;;24.05;52.82
50430;BME280;36359;41.556;-8.418;2023-05-03T09:00:04;99621.94;;;24.21;55.51
50430;BME280;36359;41.556;-8.418;2023-05-03T09:02:37;99618.13;;;24.28;50.94
50430;BME280;36359;41.556;-8.418;2023-05-03T09:07:59;99613.78;;;24.15;52.23
50430;BME280;36359;41.556;-8.418;2023-05-03T09:10:31;99615.72;;;24.14;54.18
50430;BME280;36359;41.556;-8.418;2023-05-03T09:13:10;99621.41;;;24.24;52.67
50430;BME280;36359;41.556;-8.418;2023-05-03T09:15:38;99627.47;;;24.21;50.98
50430;BME280;36359;41.556;-8.418;2023-05-03T09:18:16;99625.25;;;24.23;50.63
50430;BME280;36359;41.556;-8.418;2023-05-03T09:20:44;99624.41;;;24.23;51.57
50430;BME280;36359;41.556;-8.418;2023-05-03T09:25:51;99630.34;;;24.48;47.92
50430;BME280;36359;41.556;-8.418;2023-05-03T09:28:21;99627.81;;;24.47;50.76
50430;BME280;36359;41.556;-8.418;2023-05-03T09:30:48;99635.38;;;24.35;51.29
50430;BME280;36359;41.556;-8.418;2023-05-03T09:33:14;99637.13;;;24.41;49.98
50430;BME280;36359;41.556;-8.418;2023-05-03T09:38:29;99620.69;;;24.34;50.61
50430;BME280;36359;41.556;-8.418;2023-05-03T09:40:55;99629.28;;;24.33;50.18
50430;BME280;36359;41.556;-8.418;2023-05-03T09:43:21;99632.22;;;24.43;47.86
50430;BME280;36359;41.556;-8.418;2023-05-03T09:45:47;99633.72;;;24.34;48.11
50430;BME280;36359;41.556;-8.418;2023-05-03T09:48:13;99632.22;;;24.43;49.40
50430;BME280;36359;41.556;-8.418;2023-05-03T09:50:39;99632.19;;;24.21;50.50
50430;BME280;36359;41.556;-8.418;2023-05-03T09:53:06;99634.16;;;24.25;50.36
50430;BME280;36359;41.556;-8.418;2023-05-03T09:55:33;99637.22;;;24.46;47.90
50430;BME280;36359;41.556;-8.418;2023-05-03T09:57:59;99635.16;;;24.58;49.93
50430;BME280;36359;41.556;-8.418;2023-05-03T10:00:25;99631.34;;;24.64;46.27
50430;BME280;36359;41.556;-8.418;2023-05-03T10:02:53;99634.66;;;24.61;48.95
50430;BME280;36359;41.556;-8.418;2023-05-03T10:05:23;99646.13;;;24.70;48.60
50430;BME280;36359;41.556;-8.418;2023-05-03T10:07:51;99644.75;;;24.73;48.67
50430;BME280;36359;41.556;-8.418;2023-05-03T10:10:20;99632.09;;;24.82;47.90
50430;BME280;36359;41.556;-8.418;2023-05-03T10:12:46;99636.59;;;24.88;48.35
50430;BME280;36359;41.556;-8.418;2023-05-03T10:15:14;99632.06;;;24.77;48.71
50430;BME280;36359;41.556;-8.418;2023-05-03T10:17:42;99626.06;;;25.12;47.22
50430;BME280;36359;41.556;-8.418;2023-05-03T10:20:27;99628.91;;;25.17;47.10
50430;BME280;36359;41.556;-8.418;2023-05-03T10:25:28;99620.69;;;25.32;47.67
50430;BME280;36359;41.556;-8.418;2023-05-03T10:28:05;99620.50;;;25.39;45.67
50430;BME280;36359;41.556;-8.418;2023-05-03T10:30:33;99614.59;;;25.30;48.33
50430;BME280;36359;41.556;-8.418;2023-05-03T10:35:41;99632.97;;;25.36;47.47
50430;BME280;36359;41.556;-8.418;2023-05-03T10:38:14;99632.09;;;25.31;43.75
50430;BME280;36359;41.556;-8.418;2023-05-03T10:40:41;99622.38;;;25.66;44.23
50430;BME280;36359;41.556;-8.418;2023-05-03T10:45:59;99637.78;;;25.46;46.86
50430;BME280;36359;41.556;-8.418;2023-05-03T10:48:25;99642.66;;;25.66;42.36
50430;BME280;36359;41.556;-8.418;2023-05-03T10:50:54;99640.59;;;25.83;46.24
50430;BME280;36359;41.556;-8.418;2023-05-03T10:53:33;99645.34;;;25.88;43.11
50430;BME280;36359;41.556;-8.418;2023-05-03T10:56:08;99651.03;;;25.71;45.14
50430;BME280;36359;41.556;-8.418;2023-05-03T10:58:45;99665.41;;;25.31;47.12
50430;BME280;36359;41.556;-8.418;2023-05-03T11:06:08;99661.03;;;24.64;47.71
50430;BME280;36359;41.556;-8.418;2023-05-03T11:08:34;99662.31;;;24.78;47.33
50430;BME280;36359;41.556;-8.418;2023-05-03T11:11:03;99648.22;;;24.85;46.91
50430;BME280;36359;41.556;-8.418;2023-05-03T11:13:35;99649.63;;;25.09;44.12
50430;BME280;36359;41.556;-8.418;2023-05-03T11:16:02;99636.00;;;25.08;46.84
50430;BME280;36359;41.556;-8.418;2023-05-03T11:18:33;99638.78;;;24.59;47.64
50430;BME280;36359;41.556;-8.418;2023-05-03T11:21:02;99628.66;;;24.97;46.34
50430;BME280;36359;41.556;-8.418;2023-05-03T11:23:29;99622.28;;;24.96;46.62
50430;BME280;36359;41.556;-8.418;2023-05-03T11:25:55;99603.13;;;25.22;44.56
50430;BME280;36359;41.556;-8.418;2023-05-03T11:28:24;99609.22;;;25.19;43.53
50430;BME280;36359;41.556;-8.418;2023-05-03T11:30:50;99597.13;;;25.08;43.07
50430;BME280;36359;41.556;-8.418;2023-05-03T11:33:16;99574.44;;;24.84;44.17
50430;BME280;36359;41.556;-8.418;2023-05-03T11:35:46;99569.53;;;25.23;42.31
50430;BME280;36359;41.556;-8.418;2023-05-03T11:38:14;99581.69;;;25.49;40.28
50430;BME280;36359;41.556;-8.418;2023-05-03T11:40:53;99589.78;;;25.51;41.19
50430;BME280;36359;41.556;-8.418;2023-05-03T11:43:18;99587.09;;;25.66;40.37
50430;BME280;36359;41.556;-8.418;2023-05-03T11:45:45;99591.19;;;25.21;41.71
50430;BME280;36359;41.556;-8.418;2023-05-03T11:48:23;99591.31;;;25.36;39.86
50430;BME280;36359;41.556;-8.418;2023-05-03T11:51:09;99596.84;;;25.04;42.70
50430;BME280;36359;41.556;-8.418;2023-05-03T11:53:53;99620.31;;;25.19;42.07
50430;BME280;36359;41.556;-8.418;2023-05-03T11:56:29;99599.66;;;25.09;43.10
50430;BME280;36359;41.556;-8.418;2023-05-03T12:03:58;99607.09;;;24.77;42.36
50430;BME280;36359;41.556;-8.418;2023-05-03T12:06:27;99604.03;;;25.05;42.27
50430;BME280;36359;41.556;-8.418;2023-05-03T12:08:54;99599.59;;;25.04;42.54
50430;BME280;36359;41.556;-8.418;2023-05-03T12:11:20;99603.78;;;25.07;43.62
50430;BME280;36359;41.556;-8.418;2023-05-03T12:14:09;99617.63;;;25.29;38.73
50430;BME280;36359;41.556;-8.418;2023-05-03T12:16:49;99635.03;;;25.19;38.60
50430;BME280;36359;41.556;-8.418;2023-05-03T12:21:48;99649.50;;;24.99;42.91
50430;BME280;36359;41.556;-8.418;2023-05-03T12:24:14;99658.19;;;24.81;41.19
50430;BME280;36359;41.556;-8.418;2023-05-03T12:26:45;99675.44;;;24.88;38.00
50430;BME280;36359;41.556;-8.418;2023-05-03T12:29:11;99673.44;;;24.56;41.24
50430;BME280;36359;41.556;-8.418;2023-05-03T12:34:06;99688.81;;;24.47;42.33
50430;BME280;36359;41.556;-8.418;2023-05-03T12:36:33;99695.00;;;24.76;43.67
50430;BME280;36359;41.556;-8.418;2023-05-03T12:39:02;99689.47;;;24.76;45.08
50430;BME280;36359;41.556;-8.418;2023-05-03T12:41:28;99710.31;;;24.79;47.14
50430;BME280;36359;41.556;-8.418;2023-05-03T12:43:59;99716.28;;;24.32;45.56
50430;BME280;36359;41.556;-8.418;2023-05-03T12:46:26;99713.50;;;23.93;45.66
50430;BME280;36359;41.556;-8.418;2023-05-03T12:48:53;99719.53;;;23.90;44.97
50430;BME280;36359;41.556;-8.418;2023-05-03T12:51:19;99721.56;;;23.94;44.71
50430;BME280;36359;41.556;-8.418;2023-05-03T12:53:46;99722.50;;;23.83;44.93
50430;BME280;36359;41.556;-8.418;2023-05-03T12:56:12;99731.78;;;23.94;45.75
50430;BME280;36359;41.556;-8.418;2023-05-03T12:58:38;99730.22;;;23.98;45.13
50430;BME280;36359;41.556;-8.418;2023-05-03T13:01:04;99731.97;;;24.04;47.03
50430;BME280;36359;41.556;-8.418;2023-05-03T13:03:30;99722.78;;;24.20;46.53
50430;BME280;36359;41.556;-8.418;2023-05-03T13:05:56;99734.81;;;23.92;51.75
50430;BME280;36359;41.556;-8.418;2023-05-03T13:08:21;99745.28;;;23.73;53.14
50430;BME280;36359;41.556;-8.418;2023-05-03T13:10:49;99748.66;;;23.47;53.65
50430;BME280;36359;41.556;-8.418;2023-05-03T13:13:15;99753.28;;;23.41;53.46
50430;BME280;36359;41.556;-8.418;2023-05-03T13:15:41;99757.78;;;23.02;56.28
50430;BME280;36359;41.556;-8.418;2023-05-03T13:18:08;99746.94;;;22.36;60.25
50430;BME280;36359;41.556;-8.418;2023-05-03T13:20:35;99750.72;;;22.71;57.92
50430;BME280;36359;41.556;-8.418;2023-05-03T13:23:01;99743.94;;;22.90;57.56
50430;BME280;36359;41.556;-8.418;2023-05-03T13:25:27;99753.63;;;22.52;61.82
50430;BME280;36359;41.556;-8.418;2023-05-03T13:27:53;99763.34;;;22.78;59.97
50430;BME280;36359;41.556;-8.418;2023-05-03T13:30:19;99782.28;;;23.10;57.83
50430;BME280;36359;41.556;-8.418;2023-05-03T13:32:46;99805.03;;;23.41;56.02
50430;BME280;36359;41.556;-8.418;2023-05-03T13:35:12;99807.56;;;23.42;56.74
50430;BME280;36359;41.556;-8.418;2023-05-03T13:37:38;99813.06;;;23.13;58.30
50430;BME280;36359;41.556;-8.418;2023-05-03T13:40:04;99837.00;;;23.20;59.43
50430;BME280;36359;41.556;-8.418;2023-05-03T13:42:30;99859.97;;;23.20;60.21